Time;durP1;ratioP1;P1;durP2;ratioP2;P2;SDS_P1;SDS_P2;PMS_P1;PMS_P2;Temp;Humidity;BMP_temperature;BMP_pressure;BME280_temperature;BME280_humidity;BME280_pressure;Samples;Min_cycle;Max_cycle;Signal;HPM_P1;HPM_P2
2023/09/29 00:00:35;;;;;;;;;;;;;;;22.83;44.57;100487.03;4278566;33;34314;-73
2023/09/29 00:03:06;;;;;;;;;;;;;;;22.91;44.95;100495.88;4258898;33;33931;-76
2023/09/29 00:05:34;;;;;;;;;;;;;;;23.11;44.54;100492.50;4277931;33;34336;-75
2023/09/29 00:08:01;;;;;;;;;;;;;;;22.68;45.30;100487.81;4273255;33;34685;-77
2023/09/29 00:10:30;;;;;;;;;;;;;;;22.77;44.93;100486.97;4278624;33;34563;-72
2023/09/29 00:12:57;;;;;;;;;;;;;;;22.41;46.30;100484.97;4274348;33;33529;-73
2023/09/29 00:15:24;;;;;;;;;;;;;;;22.34;45.53;100489.34;4274099;33;34183;-75
2023/09/29 00:17:52;;;;;;;;;;;;;;;22.74;44.96;100489.62;4252999;33;33572;-73
2023/09/29 00:20:26;;;;;;;;;;;;;;;20.96;49.78;100492.22;4275217;33;35150;-75
2023/09/29 00:22:54;;;;;;;;;;;;;;;22.03;47.00;100491.69;4263343;33;33496;-72
2023/09/29 00:25:21;;;;;;;;;;;;;;;22.06;46.88;100490.81;4276614;33;34265;-75
2023/09/29 00:27:48;;;;;;;;;;;;;;;22.14;46.93;100484.75;4278393;33;34739;-77
2023/09/29 00:30:17;;;;;;;;;;;;;;;22.00;47.32;100486.41;4268544;33;33941;-74
2023/09/29 00:32:45;;;;;;;;;;;;;;;22.01;46.99;100490.78;4271096;33;33021;-73
2023/09/29 00:35:24;;;;;;;;;;;;;;;22.35;45.60;100475.28;4274517;33;34098;-77
2023/09/29 00:37:57;;;;;;;;;;;;;;;21.54;47.97;100485.94;4273022;33;34304;-78
2023/09/29 00:40:25;;;;;;;;;;;;;;;22.00;46.54;100483.75;4276150;33;33877;-74
2023/09/29 00:42:53;;;;;;;;;;;;;;;22.41;45.26;100482.34;4276883;33;33070;-73
2023/09/29 00:45:22;;;;;;;;;;;;;;;21.72;47.43;100478.22;4275971;33;34793;-75
2023/09/29 00:47:50;;;;;;;;;;;;;;;22.44;45.55;100474.44;4261150;33;33469;-72
2023/09/29 00:50:19;;;;;;;;;;;;;;;22.67;44.70;100471.97;4273554;33;34171;-77
2023/09/29 00:52:46;;;;;;;;;;;;;;;22.54;45.35;100474.53;4277432;33;33713;-74
2023/09/29 00:55:14;;;;;;;;;;;;;;;22.15;46.58;100469.78;4276004;33;34249;-75
2023/09/29 00:57:42;;;;;;;;;;;;;;;21.96;46.97;100468.75;4278009;33;33905;-76
2023/09/29 01:00:18;;;;;;;;;;;;;;;22.02;47.28;100474.09;4270181;33;34209;-77
2023/09/29 01:02:46;;;;;;;;;;;;;;;22.61;45.09;100474.56;4271915;33;33158;-74
2023/09/29 01:05:14;;;;;;;;;;;;;;;20.76;50.30;100477.87;4273644;33;32784;-71
2023/09/29 01:07:42;;;;;;;;;;;;;;;21.55;48.20;100479.78;4274976;33;34844;-73
2023/09/29 01:10:19;;;;;;;;;;;;;;;21.69;47.75;100475.56;4264316;33;35200;-73
2023/09/29 01:12:46;;;;;;;;;;;;;;;21.70;47.70;100473.78;4275406;33;33490;-72
2023/09/29 01:15:19;;;;;;;;;;;;;;;22.16;46.04;100477.72;4276738;33;32576;-74
2023/09/29 01:17:46;;;;;;;;;;;;;;;21.91;46.80;100473.12;4274963;33;33989;-76
2023/09/29 01:20:29;;;;;;;;;;;;;;;21.77;46.40;100470.34;4280579;33;35261;-70
2023/09/29 01:22:58;;;;;;;;;;;;;;;22.21;45.80;100468.97;4279076;33;33599;-77
2023/09/29 01:25:26;;;;;;;;;;;;;;;21.89;46.52;100475.75;4280479;33;34835;-75
2023/09/29 01:27:54;;;;;;;;;;;;;;;21.53;47.74;100476.25;4272644;33;34635;-73
2023/09/29 01:30:21;;;;;;;;;;;;;;;21.50;48.04;100470.94;4262859;33;33608;-77
2023/09/29 01:32:51;;;;;;;;;;;;;;;21.55;47.60;100475.38;4272691;33;33334;-77
2023/09/29 01:35:23;;;;;;;;;;;;;;;21.86;46.48;100472.19;4277718;33;34195;-75
2023/09/29 01:37:53;;;;;;;;;;;;;;;21.05;48.69;100474.75;4280858;33;34700;-72
2023/09/29 01:40:22;;;;;;;;;;;;;;;21.50;47.48;100468.28;4281271;33;32666;-78
2023/09/29 01:42:49;;;;;;;;;;;;;;;20.94;49.14;100470.25;4266538;33;34331;-75
2023/09/29 01:45:18;;;;;;;;;;;;;;;21.57;47.56;100470.13;4278062;33;34065;-72
2023/09/29 01:47:46;;;;;;;;;;;;;;;21.13;49.02;100473.09;4274716;33;35033;-75
2023/09/29 01:50:16;;;;;;;;;;;;;;;20.93;49.26;100471.09;4277840;33;34969;-71
2023/09/29 01:52:44;;;;;;;;;;;;;;;21.54;47.26;100471.00;4267527;33;34415;-78
2023/09/29 01:55:19;;;;;;;;;;;;;;;22.11;45.67;100468.88;4275041;33;34329;-73
2023/09/29 01:57:47;;;;;;;;;;;;;;;22.17;45.01;100468.97;4273397;33;34302;-76
2023/09/29 02:00:19;;;;;;;;;;;;;;;21.49;46.62;100471.81;4270138;33;35217;-75
2023/09/29 02:02:47;;;;;;;;;;;;;;;21.75;45.82;100470.34;4273183;33;34001;-79
2023/09/29 02:05:18;;;;;;;;;;;;;;;22.03;46.14;100473.22;4279929;33;34971;-75
2023/09/29 02:07:46;;;;;;;;;;;;;;;21.69;47.14;100475.56;4276148;33;34271;-76
2023/09/29 02:10:14;;;;;;;;;;;;;;;21.50;47.46;100471.84;4278922;33;34153;-75
2023/09/29 02:12:46;;;;;;;;;;;;;;;21.22;47.86;100470.59;4277928;33;33600;-72
2023/09/29 02:15:15;;;;;;;;;;;;;;;21.11;47.85;100474.84;4265883;33;34126;-69
2023/09/29 02:17:43;;;;;;;;;;;;;;;21.71;46.22;100467.63;4272285;33;33580;-73
2023/09/29 02:20:28;;;;;;;;;;;;;;;21.71;45.97;100468.53;4251901;33;33548;-75
2023/09/29 02:23:00;;;;;;;;;;;;;;;20.69;48.98;100470.78;4275993;33;33329;-77
2023/09/29 02:25:28;;;;;;;;;;;;;;;20.55;49.25;100473.16;4269572;33;106485;-78
2023/09/29 02:27:57;;;;;;;;;;;;;;;21.27;47.20;100468.91;4274374;33;34060;-75
2023/09/29 02:30:24;;;;;;;;;;;;;;;20.81;48.35;100470.94;4276863;33;35280;-75
2023/09/29 02:32:52;;;;;;;;;;;;;;;21.78;45.97;100465.06;4279232;33;33518;-73
2023/09/29 02:35:20;;;;;;;;;;;;;;;21.30;47.64;100471.56;4273034;33;34219;-76
2023/09/29 02:37:47;;;;;;;;;;;;;;;20.05;50.99;100463.63;4273088;33;34957;-72
2023/09/29 02:40:15;;;;;;;;;;;;;;;20.91;48.52;100467.56;4260278;33;34290;-78
2023/09/29 02:42:44;;;;;;;;;;;;;;;21.55;46.27;100471.88;4279239;33;34142;-75
2023/09/29 02:45:12;;;;;;;;;;;;;;;21.20;46.95;100464.41;4273240;33;34989;-72
2023/09/29 02:47:41;;;;;;;;;;;;;;;21.04;47.46;100462.47;4264131;33;33327;-72
2023/09/29 02:50:09;;;;;;;;;;;;;;;20.94;47.67;100467.63;4269766;33;34481;-68
2023/09/29 02:52:39;;;;;;;;;;;;;;;20.94;48.04;100467.63;4272543;33;34858;-71
2023/09/29 02:55:10;;;;;;;;;;;;;;;20.22;50.04;100466.50;4259503;33;33212;-76
2023/09/29 02:57:40;;;;;;;;;;;;;;;19.39;52.58;100473.78;4261143;33;33487;-75
2023/09/29 03:00:15;;;;;;;;;;;;;;;19.86;51.04;100469.41;4257850;33;33715;-78
2023/09/29 03:02:43;;;;;;;;;;;;;;;19.70;51.66;100463.87;4276225;33;33545;-75
2023/09/29 03:05:11;;;;;;;;;;;;;;;19.90;50.94;100468.63;4275128;33;34218;-77
2023/09/29 03:07:39;;;;;;;;;;;;;;;20.30;49.84;100462.28;4273156;33;33858;-71
2023/09/29 03:10:06;;;;;;;;;;;;;;;21.77;46.03;100454.53;4271340;33;35334;-74
2023/09/29 03:12:36;;;;;;;;;;;;;;;22.05;45.29;100457.41;4263302;33;33318;-73
2023/09/29 03:15:04;;;;;;;;;;;;;;;22.47;44.20;100464.81;4272603;33;34557;-76
2023/09/29 03:17:32;;;;;;;;;;;;;;;21.47;46.54;100457.72;4268088;33;34140;-72
2023/09/29 03:19:59;;;;;;;;;;;;;;;20.50;48.33;100465.22;4272687;33;34230;-73
2023/09/29 03:22:27;;;;;;;;;;;;;;;20.70;47.92;100468.16;4274466;33;34221;-74
2023/09/29 03:24:55;;;;;;;;;;;;;;;20.13;49.69;100458.50;4281200;33;34243;-72
2023/09/29 03:27:23;;;;;;;;;;;;;;;19.69;50.89;100466.47;4279545;33;33565;-73
2023/09/29 03:29:51;;;;;;;;;;;;;;;19.62;51.22;100473.31;4285692;33;33806;-74
2023/09/29 03:32:18;;;;;;;;;;;;;;;20.28;49.28;100468.34;4276603;33;33056;-78
2023/09/29 03:34:47;;;;;;;;;;;;;;;20.87;47.88;100465.75;4263721;33;33596;-73
2023/09/29 03:37:14;;;;;;;;;;;;;;;21.19;46.93;100473.22;4281354;33;34810;-76
2023/09/29 03:39:42;;;;;;;;;;;;;;;21.13;46.81;100473.09;4284721;33;33918;-72
2023/09/29 03:42:09;;;;;;;;;;;;;;;21.03;46.78;100477.37;4270429;33;34028;-74
2023/09/29 03:44:36;;;;;;;;;;;;;;;21.05;46.67;100472.13;4277595;33;34318;-74
2023/09/29 03:47:04;;;;;;;;;;;;;;;20.94;47.48;100477.28;4277219;33;35164;-75
2023/09/29 03:49:31;;;;;;;;;;;;;;;20.71;48.37;100475.19;4277930;33;34913;-75
2023/09/29 03:52:00;;;;;;;;;;;;;;;20.20;49.30;100471.78;4277723;33;33572;-74
2023/09/29 03:54:27;;;;;;;;;;;;;;;20.74;47.72;100474.34;4279880;33;34345;-72
2023/09/29 03:56:55;;;;;;;;;;;;;;;21.00;47.32;100478.22;4279563;33;33854;-77
2023/09/29 03:59:24;;;;;;;;;;;;;;;20.51;48.78;100477.50;4278011;33;34267;-72
2023/09/29 04:01:52;;;;;;;;;;;;;;;20.77;47.84;100477.03;4275735;33;33731;-70
2023/09/29 04:04:20;;;;;;;;;;;;;;;20.87;47.79;100471.03;4278547;33;34275;-71
2023/09/29 04:06:47;;;;;;;;;;;;;;;21.34;46.84;100473.38;4277975;33;34333;-75
2023/09/29 04:09:14;;;;;;;;;;;;;;;20.04;49.74;100485.50;4276010;33;34220;-75
2023/09/29 04:11:42;;;;;;;;;;;;;;;20.65;48.40;100479.47;4276423;33;34124;-72
2023/09/29 04:14:09;;;;;;;;;;;;;;;20.13;49.54;100475.16;4273671;33;35090;-75
2023/09/29 04:16:55;;;;;;;;;;;;;;;20.01;50.00;100482.81;4265282;33;34060;-72
2023/09/29 04:19:22;;;;;;;;;;;;;;;21.26;46.71;100490.84;4274561;33;34519;-69
2023/09/29 04:21:50;;;;;;;;;;;;;;;19.97;50.05;100483.63;4272349;33;33106;-75
2023/09/29 04:24:17;;;;;;;;;;;;;;;20.39;48.45;100482.56;4275146;33;34186;-74
2023/09/29 04:26:44;;;;;;;;;;;;;;;20.77;47.86;100484.94;4274975;33;33753;-71
2023/09/29 04:29:12;;;;;;;;;;;;;;;20.19;48.94;100484.91;4280062;33;34549;-72
2023/09/29 04:31:39;;;;;;;;;;;;;;;20.56;48.07;100475.81;4275838;33;33598;-71
2023/09/29 04:34:06;;;;;;;;;;;;;;;21.59;45.78;100479.84;4276554;33;34135;-70
2023/09/29 04:36:34;;;;;;;;;;;;;;;20.52;48.29;100488.91;4265492;33;34248;-73
2023/09/29 04:39:01;;;;;;;;;;;;;;;20.67;47.64;100488.28;4286283;33;34061;-73
2023/09/29 04:41:29;;;;;;;;;;;;;;;20.41;48.63;100491.37;4273922;33;33569;-75
2023/09/29 04:43:57;;;;;;;;;;;;;;;19.84;50.18;100493.94;4278542;33;34765;-76
2023/09/29 04:46:26;;;;;;;;;;;;;;;19.73;50.66;100495.47;4275803;33;35008;-76
2023/09/29 04:48:54;;;;;;;;;;;;;;;19.61;50.85;100503.12;4280442;33;33783;-75
2023/09/29 04:51:23;;;;;;;;;;;;;;;19.84;50.08;100503.56;4285678;33;34293;-72
2023/09/29 04:53:50;;;;;;;;;;;;;;;19.94;49.89;100502.88;4264054;33;34944;-72
2023/09/29 04:56:17;;;;;;;;;;;;;;;19.60;51.05;100503.94;4285461;33;34183;-75
2023/09/29 04:58:46;;;;;;;;;;;;;;;19.57;51.17;100509.16;4275683;33;34505;-75
2023/09/29 05:01:18;;;;;;;;;;;;;;;19.82;50.10;100503.53;4276748;33;33505;-71
2023/09/29 05:03:47;;;;;;;;;;;;;;;19.82;50.20;100506.16;4272249;33;34343;-76
2023/09/29 05:06:15;;;;;;;;;;;;;;;19.98;49.53;100506.44;4286760;33;32769;-73
2023/09/29 05:08:44;;;;;;;;;;;;;;;19.70;51.05;100511.19;4274086;33;34220;-75
2023/09/29 05:11:22;;;;;;;;;;;;;;;20.47;48.71;100504.63;4276355;33;33349;-72
2023/09/29 05:13:52;;;;;;;;;;;;;;;20.28;48.96;100505.19;4272386;33;34162;-71
2023/09/29 05:16:21;;;;;;;;;;;;;;;20.99;47.32;100507.16;4279514;33;34005;-73
2023/09/29 05:18:49;;;;;;;;;;;;;;;20.85;47.66;100504.34;4277816;33;34179;-74
2023/09/29 05:21:17;;;;;;;;;;;;;;;20.84;47.99;100502.56;4281775;33;33697;-77
2023/09/29 05:23:44;;;;;;;;;;;;;;;20.56;48.93;100502.13;4283790;33;34258;-72
2023/09/29 05:26:12;;;;;;;;;;;;;;;20.79;49.00;100505.16;4286175;33;33993;-74
2023/09/29 05:28:39;;;;;;;;;;;;;;;20.41;49.45;100496.62;4276771;33;34359;-72
2023/09/29 05:31:07;;;;;;;;;;;;;;;20.41;49.37;100504.53;4274048;33;34292;-75
2023/09/29 05:33:34;;;;;;;;;;;;;;;20.12;49.93;100510.19;4273995;33;33788;-71
2023/09/29 05:36:02;;;;;;;;;;;;;;;20.17;49.86;100510.28;4282948;33;33749;-73
2023/09/29 05:38:30;;;;;;;;;;;;;;;21.43;46.89;100513.88;4276535;33;34900;-73
2023/09/29 05:40:57;;;;;;;;;;;;;;;21.59;46.80;100515.84;4279654;33;34160;-75
2023/09/29 05:43:26;;;;;;;;;;;;;;;22.28;44.87;100513.06;4272247;33;34900;-72
2023/09/29 05:45:53;;;;;;;;;;;;;;;21.43;47.16;100514.75;4276857;33;34748;-75
2023/09/29 05:48:20;;;;;;;;;;;;;;;21.34;47.25;100510.28;4276423;33;34685;-73
2023/09/29 05:50:49;;;;;;;;;;;;;;;20.69;49.26;100520.81;4284061;33;33151;-74
2023/09/29 05:53:17;;;;;;;;;;;;;;;21.05;48.66;100514.28;4281342;33;33822;-71
2023/09/29 05:55:45;;;;;;;;;;;;;;;21.89;46.35;100510.03;4278358;33;34245;-77
2023/09/29 05:58:12;;;;;;;;;;;;;;;20.94;48.37;100519.41;4286609;33;34332;-72
2023/09/29 06:00:40;;;;;;;;;;;;;;;21.57;47.66;100517.59;4277427;33;33584;-74
2023/09/29 06:03:08;;;;;;;;;;;;;;;21.49;48.43;100519.25;4283135;33;33958;-73
2023/09/29 06:05:36;;;;;;;;;;;;;;;22.37;46.51;100515.78;4270638;33;35041;-73
2023/09/29 06:08:04;;;;;;;;;;;;;;;23.05;44.68;100518.87;4277478;33;34830;-73
2023/09/29 06:10:31;;;;;;;;;;;;;;;23.07;44.58;100525.06;4273437;33;33613;-72
2023/09/29 06:12:59;;;;;;;;;;;;;;;23.34;43.97;100527.81;4268933;33;34145;-73
2023/09/29 06:15:31;;;;;;;;;;;;;;;23.23;43.91;100533.94;4282326;33;34069;-74
2023/09/29 06:17:58;;;;;;;;;;;;;;;23.03;44.60;100526.81;4277752;33;34454;-74
2023/09/29 06:20:26;;;;;;;;;;;;;;;22.76;45.72;100528.37;4286278;33;34127;-75
2023/09/29 06:22:54;;;;;;;;;;;;;;;22.80;45.41;100524.00;4278943;33;34876;-70
2023/09/29 06:25:21;;;;;;;;;;;;;;;23.17;44.55;100527.75;4276700;33;34234;-74
2023/09/29 06:27:49;;;;;;;;;;;;;;;23.45;44.27;100529.63;4278758;33;34638;-75
2023/09/29 06:30:16;;;;;;;;;;;;;;;23.27;44.65;100531.31;4275254;33;34061;-77
2023/09/29 06:32:44;;;;;;;;;;;;;;;24.02;42.95;100525.41;4284559;33;34337;-75
2023/09/29 06:35:12;;;;;;;;;;;;;;;23.25;44.82;100533.06;4264549;33;34918;-77
2023/09/29 06:37:39;;;;;;;;;;;;;;;23.06;45.46;100531.22;4273833;33;35059;-76
2023/09/29 06:40:10;;;;;;;;;;;;;;;23.44;44.99;100541.09;4273755;33;33798;-72
2023/09/29 06:42:38;;;;;;;;;;;;;;;23.03;45.97;100542.66;4264081;33;34085;-71
2023/09/29 06:45:06;;;;;;;;;;;;;;;23.40;45.32;100544.59;4265936;33;33692;-76
2023/09/29 06:47:34;;;;;;;;;;;;;;;23.69;44.65;100544.69;4286182;33;34641;-76
2023/09/29 06:50:01;;;;;;;;;;;;;;;23.78;44.64;100544.75;4266918;33;33357;-73
2023/09/29 06:52:29;;;;;;;;;;;;;;;23.71;44.78;100543.81;4263881;33;34271;-74
2023/09/29 06:54:57;;;;;;;;;;;;;;;24.21;43.77;100538.66;4279506;33;34977;-73
2023/09/29 06:57:24;;;;;;;;;;;;;;;24.71;42.68;100545.75;4277469;33;34522;-70
2023/09/29 06:59:51;;;;;;;;;;;;;;;24.64;42.90;100538.69;4273837;33;34718;-73
2023/09/29 07:02:19;;;;;;;;;;;;;;;23.70;44.30;100547.34;4275295;33;33981;-73
2023/09/29 07:04:47;;;;;;;;;;;;;;;24.10;43.41;100550.09;4274534;33;34149;-74
2023/09/29 07:07:15;;;;;;;;;;;;;;;24.42;42.87;100559.84;4277181;33;33983;-75
2023/09/29 07:09:43;;;;;;;;;;;;;;;24.43;43.01;100553.66;4277516;33;33257;-70
2023/09/29 07:12:34;;;;;;;;;;;;;;;24.46;43.04;100553.66;4273868;33;34176;-75
2023/09/29 07:15:03;;;;;;;;;;;;;;;25.00;42.13;100558.06;4280339;33;34749;-75
2023/09/29 07:17:30;;;;;;;;;;;;;;;25.22;41.84;100559.78;4267343;33;34437;-74
2023/09/29 07:19:57;;;;;;;;;;;;;;;25.04;42.18;100559.81;4275881;33;34136;-75
2023/09/29 07:22:25;;;;;;;10.32;5.87;;;;;;;25.15;42.18;100560.66;4274428;33;35672;-72
2023/09/29 07:24:57;;;;;;;9.27;5.62;;;;;;;25.27;42.06;100557.12;4275282;33;33756;-74
2023/09/29 07:27:27;;;;;;;11.10;6.07;;;;;;;25.35;40.47;100554.44;4276661;33;33889;-70
2023/09/29 07:29:56;;;;;;;;;;;;;;;26.07;39.68;100554.97;4276979;33;33714;-71
2023/09/29 07:32:26;;;;;;;11.32;5.70;;;;;;;25.35;40.17;100554.44;4280864;33;33833;-75
2023/09/29 07:34:53;;;;;;;8.80;5.30;;;;;;;25.58;39.94;100552.56;4279418;33;34282;-71
2023/09/29 07:37:21;;;;;;;12.05;5.53;;;;;;;25.90;38.99;100559.47;4284690;33;34277;-74
2023/09/29 07:39:49;;;;;;;9.52;5.25;;;;;;;25.70;38.94;100563.09;4281236;33;33541;-76
2023/09/29 07:42:17;;;;;;;11.48;5.22;;;;;;;26.36;38.32;100558.31;4275890;33;33786;-75
2023/09/29 07:44:45;;;;;;;10.65;5.20;;;;;;;26.66;37.96;100562.50;4284446;33;34007;-78
2023/09/29 07:47:12;;;;;;;8.52;5.25;;;;;;;26.55;37.44;100564.34;4285351;33;34265;-74
2023/09/29 07:49:40;;;;;;;7.87;4.80;;;;;;;27.21;36.74;100561.91;4272318;33;33485;-72
2023/09/29 07:52:08;;;;;;;10.40;4.80;;;;;;;27.40;36.49;100561.75;4266632;33;34668;-71
2023/09/29 07:54:35;;;;;;;8.00;5.10;;;;;;;27.05;36.46;100563.00;4274155;33;33746;-76
2023/09/29 07:57:04;;;;;;;8.43;5.07;;;;;;;27.81;35.59;100562.97;4271231;33;34222;-75
2023/09/29 07:59:31;;;;;;;10.73;4.85;;;;;;;28.10;34.95;100554.59;4281992;33;33672;-72
2023/09/29 08:01:59;;;;;;;9.18;4.87;;;;;;;28.74;33.84;100563.34;4285812;33;33455;-75
2023/09/29 08:04:27;;;;;;;10.75;5.40;;;;;;;28.91;33.33;100554.12;4274635;33;33473;-72
2023/09/29 08:06:54;;;;;;;8.30;4.57;;;;;;;29.43;31.64;100555.81;4279415;33;34326;-75
2023/09/29 08:09:23;;;;;;;7.22;4.40;;;;;;;29.39;32.17;100556.78;4281116;33;33702;-73
2023/09/29 08:11:51;;;;;;;8.38;4.85;;;;;;;29.57;32.34;100553.72;4274826;33;34727;-77
2023/09/29 08:14:18;;;;;;;9.57;4.90;;;;;;;28.80;31.95;100552.56;4277672;33;34355;-72
2023/09/29 08:16:46;;;;;;;11.20;5.30;;;;;;;28.76;32.57;100558.87;4284872;33;34795;-73
2023/09/29 08:19:14;;;;;;;;;;;;;;;29.64;31.74;100557.12;4282951;33;33422;-70
2023/09/29 08:21:41;;;;;;;10.55;4.95;;;;;;;29.79;30.54;100555.97;4278472;33;34364;-73
2023/09/29 08:24:08;;;;;;;11.25;4.45;;;;;;;30.11;30.18;100554.31;4276135;33;33392;-72
2023/09/29 08:26:37;;;;;;;9.07;5.22;;;;;;;29.96;30.39;100551.09;4283590;33;34311;-72
2023/09/29 08:29:06;;;;;;;9.88;4.72;;;;;;;30.38;30.22;100560.81;4285282;33;33647;-72
2023/09/29 08:31:33;;;;;;;7.25;4.75;;;;;;;30.75;29.65;100550.06;4282554;33;33482;-72
2023/09/29 08:34:03;;;;;;;7.65;4.28;;;;;;;31.35;28.91;100552.88;4282241;33;33767;-75
2023/09/29 08:36:31;;;;;;;7.82;5.20;;;;;;;31.16;28.85;100558.75;4284781;33;34085;-75
2023/09/29 08:38:58;;;;;;;9.27;4.87;;;;;;;31.12;29.64;100548.19;4280176;33;34306;-71
2023/09/29 08:41:27;;;;;;;8.93;4.62;;;;;;;31.74;28.96;100558.00;4274642;33;33992;-75
2023/09/29 08:43:55;;;;;;;7.75;5.10;;;;;;;32.00;27.88;100548.25;4274315;33;33936;-76
2023/09/29 08:46:37;;;;;;;8.70;5.47;;;;;;;31.65;27.98;100552.91;4271421;33;34100;-73
2023/09/29 08:49:05;;;;;;;10.23;5.30;;;;;;;31.79;28.62;100555.16;4262137;33;33333;-74
2023/09/29 08:51:36;;;;;;;9.57;5.30;;;;;;;31.47;28.57;100555.22;4260118;33;34434;-72
2023/09/29 08:54:05;;;;;;;9.90;5.62;;;;;;;31.66;28.51;100560.00;4270962;33;33424;-74
2023/09/29 08:56:33;;;;;;;9.52;5.20;;;;;;;31.72;27.96;100559.84;4276752;33;35346;-74
2023/09/29 08:59:01;;;;;;;12.23;4.93;;;;;;;32.40;27.25;100557.72;4278130;33;34413;-75
2023/09/29 09:01:30;;;;;;;10.02;4.75;;;;;;;32.62;27.57;100552.50;4282512;33;33903;-75
2023/09/29 09:03:58;;;;;;;13.05;4.72;;;;;;;32.87;26.28;100556.06;4276276;33;34746;-75
2023/09/29 09:06:27;;;;;;;10.35;4.93;;;;;;;33.42;26.51;100561.28;4258718;33;33502;-74
2023/09/29 09:08:56;;;;;;;8.40;4.95;;;;;;;33.04;25.67;100566.22;4275572;33;33567;-75
2023/09/29 09:11:25;;;;;;;10.10;5.15;;;;;;;33.29;26.23;100559.97;4274009;33;34727;-71
2023/09/29 09:14:00;;;;;;;7.78;4.37;;;;;;;33.71;25.31;100558.41;4267041;33;34368;-74
2023/09/29 09:16:34;;;;;;;;;;;;;;;34.02;25.25;100550.03;4275654;33;34112;-74
2023/09/29 09:19:08;;;;;;;;;;;;;;;34.49;24.39;100549.88;4274726;33;33665;-75
2023/09/29 09:21:36;;;;;;;;;;;;;;;34.52;24.60;100549.75;4274169;33;35161;-75
2023/09/29 09:24:04;;;;;;;;;;;;;;;34.44;24.88;100562.63;4274242;33;34280;-74
2023/09/29 09:26:31;;;;;;;;;;;;;;;34.63;24.13;100547.44;4275901;33;34231;-74
2023/09/29 09:29:07;;;;;;;;;;;;;;;34.95;24.05;100553.28;4275989;33;32952;-73
2023/09/29 09:31:42;;;;;;;;;;;;;;;34.53;24.65;100551.47;4272706;33;34966;-75
2023/09/29 09:34:10;;;;;;;;;;;;;;;34.42;23.98;100548.38;4275756;33;34710;-72
2023/09/29 09:36:44;;;;;;;;;;;;;;;34.61;23.11;100545.78;4272325;33;34597;-73
2023/09/29 09:39:11;;;;;;;;;;;;;;;34.88;23.80;100550.91;4272017;33;34295;-76
2023/09/29 09:41:39;;;;;;;;;;;;;;;34.93;24.10;100547.09;4274479;33;34474;-72
2023/09/29 09:44:06;;;;;;;;;;;;;;;35.03;23.31;100548.41;4277195;33;34018;-75
2023/09/29 09:46:34;;;;;;;;;;;;;;;34.79;23.08;100536.03;4273083;33;33942;-73
2023/09/29 09:49:09;;;;;;;;;;;;;;;34.24;24.87;100542.81;4269763;33;34156;-74
2023/09/29 09:51:37;;;;;;;;;;;;;;;34.53;24.46;100545.22;4265424;33;34204;-74
2023/09/29 09:54:08;;;;;;;;;;;;;;;34.76;24.04;100536.19;4264013;33;34500;-75
2023/09/29 09:57:08;;;;;;;;;;;;;;;34.57;24.66;100531.56;4270467;33;34783;-76
2023/09/29 09:59:36;;;;;;;;;;;;;;;34.80;23.77;100527.03;4284980;33;32587;-71
2023/09/29 10:02:06;;;;;;;;;;;;;;;34.46;24.33;100528.47;4284580;33;34106;-74
2023/09/29 10:04:35;;;;;;;;;;;;;;;34.59;23.87;100532.37;4263098;33;35754;-75
2023/09/29 10:07:04;;;;;;;;;;;;;;;34.89;23.75;100537.41;4279499;33;34520;-71
2023/09/29 10:09:42;;;;;;;;;;;;;;;34.43;24.23;100528.63;4288964;33;34236;-74
2023/09/29 10:12:23;;;;;;;;;;;;;;;35.02;23.92;100533.22;4280766;33;34563;-76
2023/09/29 10:14:52;;;;;;;;;;;;;;;35.11;24.28;100526.53;4276096;33;34907;-73
2023/09/29 10:17:20;;;;;;;;;;;;;;;35.58;23.60;100530.66;4281815;33;34841;-73
2023/09/29 10:19:54;;;;;;;;;;;;;;;34.94;23.53;100527.28;4277023;33;33312;-71
2023/09/29 10:22:23;;;;;;;;;;;;;;;35.16;23.71;100519.13;4276862;33;33838;-70
2023/09/29 10:24:56;;;;;;;;;;;;;;;35.40;22.91;100527.88;4275882;33;34762;-75
2023/09/29 10:27:30;;;;;;;;;;;;;;;35.34;23.24;100516.53;4263326;33;34863;-73
2023/09/29 10:30:16;;;;;;;;;;;;;;;35.25;23.56;100523.22;4277935;33;35407;-72
2023/09/29 10:32:45;;;;;;;;;;;;;;;35.24;23.90;100524.19;4254811;33;32416;-76
2023/09/29 10:35:19;;;;;;;;;;;;;;;35.15;23.63;100521.87;4282268;33;34055;-75
2023/09/29 10:37:49;;;;;;;;;;;;;;;35.21;23.59;100516.22;4275393;33;34856;-71
2023/09/29 10:40:21;;;;;;;;;;;;;;;35.09;23.46;100511.41;4261524;33;32510;-75
2023/09/29 10:42:48;;;;;;;;;;;;;;;35.72;22.92;100512.06;4273533;33;33572;-74
2023/09/29 10:45:28;;;;;;;;;;;;;;;35.24;24.01;100516.09;4274674;33;33946;-74
2023/09/29 10:48:00;;;;;;;;;;;;;;;35.22;23.68;100513.47;4272355;33;34547;-73
2023/09/29 10:50:28;;;;;;;;;;;;;;;35.44;22.68;100507.94;4274840;33;33535;-76
2023/09/29 10:52:56;;;;;;;;;;;;;;;34.87;22.97;100504.28;4271559;33;33482;-72
2023/09/29 10:55:24;;;;;;;;;;;;;;;35.67;23.59;100503.31;4274251;33;34930;-76
2023/09/29 10:57:52;;;;;;;;;;;;;;;35.38;23.55;100500.16;4280598;33;35207;-75
2023/09/29 11:00:20;;;;;;;;;;;;;;;35.51;23.11;100500.44;4276210;33;33767;-73
2023/09/29 11:02:49;;;;;;;;;;;;;;;35.44;23.85;100497.16;4276197;33;33916;-73
2023/09/29 11:05:17;;;;;;;;;;;;;;;35.35;23.54;100492.25;4267237;33;35162;-75
2023/09/29 11:07:45;;;;;;;;;;;;;;;35.78;22.94;100479.41;4263136;33;34183;-75
2023/09/29 11:10:12;;;;;;;;;;;;;;;35.57;23.10;100480.44;4275638;33;34199;-72
2023/09/29 11:12:43;;;;;;;;;;;;;;;35.49;22.10;100478.09;4273827;33;34903;-74
2023/09/29 11:15:12;;;;;;;;;;;;;;;35.45;23.58;100473.81;4279855;33;34700;-76
2023/09/29 11:17:47;;;;;;;;;;;;;;;35.58;23.60;100471.37;4276462;33;34392;-74
2023/09/29 11:20:29;;;;;;;;;;;;;;;35.76;21.88;100470.53;4273574;33;33311;-74
2023/09/29 11:22:59;;;;;;;;;;;;;;;35.56;22.52;100473.28;4272919;33;32997;-77
2023/09/29 11:25:27;;;;;;;;;;;;;;;35.59;22.92;100467.75;4273722;33;34081;-76
2023/09/29 11:27:55;;;;;;;;;;;;;;;35.72;22.75;100463.53;4271141;33;34170;-74
2023/09/29 11:30:24;;;;;;;;;;;;;;;35.88;22.80;100468.16;4271467;33;33316;-75
2023/09/29 11:32:52;;;;;;;;;;;;;;;35.71;22.02;100452.84;4259355;33;34280;-72
2023/09/29 11:35:21;;;;;;;;;;;;;;;35.66;22.60;100453.03;4270850;33;34012;-73
2023/09/29 11:37:49;;;;;;;;;;;;;;;36.29;22.00;100451.72;4283745;33;33566;-73
2023/09/29 11:40:17;;;;;;;;;;;;;;;35.76;22.40;100443.56;4286946;33;33328;-74
2023/09/29 11:42:45;;;;;;;;;;;;;;;36.00;22.16;100440.56;4271275;33;33776;-76
2023/09/29 11:45:12;;;;;;;;;;;;;;;36.03;21.99;100440.44;4274261;33;33883;-76
2023/09/29 11:47:41;;;;;;;;;;;;;;;36.35;21.31;100446.00;4274461;33;34252;-73
2023/09/29 11:50:09;;;;;;;;;;;;;;;36.26;21.18;100441.09;4261263;33;33503;-73
2023/09/29 11:52:39;;;;;;;;;;;;;;;36.12;20.84;100450.75;4274100;33;34440;-72
2023/09/29 11:55:08;;;;;;;;;;;;;;;36.38;19.84;100440.47;4277379;33;32463;-73
2023/09/29 11:57:37;;;;;;;;;;;;;;;35.98;19.54;100431.69;4279551;33;34292;-75
2023/09/29 12:00:08;;;;;;;;;;;;;;;35.72;18.87;100433.91;4279363;33;33613;-75
2023/09/29 12:02:35;;;;;;;;;;;;;;;35.55;19.83;100434.69;4277477;33;34077;-72
2023/09/29 12:05:04;;;;;;;;;;;;;;;35.88;20.15;100430.44;4280644;33;33695;-76
2023/09/29 12:07:32;;;;;;;;;;;;;;;36.13;20.44;100428.22;4279912;33;34510;-76
2023/09/29 12:09:59;;;;;;;;;;;;;;;35.90;20.60;100424.00;4264850;33;33509;-72
2023/09/29 12:12:26;;;;;;;;;;;;;;;37.01;20.05;100423.56;4281733;33;34210;-76
2023/09/29 12:14:54;;;;;;;;;;;;;;;36.87;20.23;100424.34;4286329;33;33936;-74
2023/09/29 12:17:22;;;;;;;;;;;;;;;36.27;20.17;100415.88;4274691;33;33879;-73
2023/09/29 12:19:51;;;;;;;;;;;;;;;36.17;20.10;100421.72;4279365;33;32674;-73
2023/09/29 12:22:19;;;;;;;;;;;;;;;36.25;20.06;100412.38;4287048;33;34229;-71
2023/09/29 12:24:46;;;;;;;;;;;;;;;36.41;19.79;100407.91;4276328;33;33678;-71
2023/09/29 12:27:13;;;;;;;;;;;;;;;37.11;18.99;100407.75;4275153;33;34427;-76
2023/09/29 12:29:41;;;;;;;;;;;;;;;36.52;19.22;100405.50;4276532;33;33398;-75
2023/09/29 12:32:09;;;;;;;;;;;;;;;36.56;19.58;100404.38;4283068;33;34654;-72
2023/09/29 12:34:37;;;;;;;;;;;;;;;35.77;20.62;100396.78;4284488;33;34812;-76